NZWN/WLG METAR and TAF weather

Enter ICAO airport designator
Station Type Date Time Source
NZWN METAR 2019/12/14 17:00 UTC NOAA

NZWN 141700Z AUTO 35019KT 9999 NCD 15/09 Q1008 NOSIG


Station Type Date Time Source
NZWN Decoded METAR 2019/12/14 17:00 UTC NOAA

Wellington Airport, New Zealand (NZWN) 41-20S 174-48E 8M
Dec 14, 2019 - 12:00 PM EST / 2019.12.14 1700 UTC
Wind: from the N (350 degrees) at 22 MPH (19 KT):0
Visibility: greater than 7 mile(s):0
Temperature: 59 F (15 C)
Dew Point: 48 F (9 C)
Relative Humidity: 67%
Pressure (altimeter): 29.77 in. Hg (1008 hPa)
ob: NZWN 141700Z AUTO 35019KT 9999 NCD 15/09 Q1008 NOSIG
cycle: 17

Station Type Date Time Source
NZWN TAF 2019/12/14 18:05 UTC NOAA

TAF NZWN 141701Z 1418/1518 36015G25KT 9999 FEW030
BECMG 1500/1502 36020G35KT
FM151000 36015G25KT 9999 -SHRA FEW012 BKN020
TEMPO 1510/1518 6000 SHRA BKN012

Example: see airport list